Stevens Village, AK (99774)

11:05 AM AKDT on July 11, 2014 (GMT -0800)
RAWS SEVEN MILE AK US (MSMIA2) Elev 823 ft | 65.94 °N, 149.85 °W | Change Station

Current weather conditions updated 46 minutes ago

Overcast
Overcast
61 °F
Feels Like 61 °F
N
2
Wind Variable Wind from WNW
Gusts 8.0 mph

Today is forecast to be Much Cooler than yesterday. Periods of light rain.

Today
High -- | Low -- °F
--% Chance of Precip.
Yesterday
High -- | Low -- °F
Precip. -- in
3:14 AM 0:45 AM
Waxing Gibbous, 99% visible
Pressure 29.61 in
Visibility 6.0 miles
Clouds Mostly Cloudy 5000 ft
Overcast 5500 ft
Dew Point 53 °F
Humidity 74%
Rainfall 0.00 in
Snow Depth Not available.
UV 1 out of 12
Pollen Not available.
Air Quality Not available.
Flu Activity Sporadic
METAR PABT 111853Z 00000KT 6SM RA BR BKN050 OVC055 14/13 A2959 RMK AO2 SLP027 P0008 T01390128

More Conditions Fewer Conditions

Pressure 29.61 in
Visibility 6.0 miles
Clouds Mostly Cloudy 5000 ft
Overcast 5500 ft
Dew Point 53 °F
Humidity 74%
Rainfall 0.00 in
Snow Depth Not available.
UV 1 out of 12
Pollen Not available.
Air Quality Not available.
Flu Activity Sporadic
METAR PABT 111853Z 00000KT 6SM RA BR BKN050 OVC055 14/13 A2959 RMK AO2 SLP027 P0008 T01390128

More Conditions Fewer Conditions

10-Day Weather Forecast

Almanac

Astronomy

Jul. 11, 2014 Rise Set
Actual Time 3:14 AM AKDT 12:45 AM AKDT
Civil Twilight Sun does not rise Sun does not rise
Nautical Twilight Sun does not rise Sun does not rise
Astronomical Twilight Sun does not rise Sun does not rise
Moon 10:50 PM AKDT 3:41 AM AKDT
Length of Visible Light 24h 00m
Length of Day
21h 31m
Tomorrow will be 8m 58s shorter.
Waxing Gibbous, 99% of the Moon is Illuminated
Today
Waxing Gibbous
Jul 12
Full
Jul 18
Last Quarter
Jul 26
New
Aug 3
First Quarter

Today's Extremes

State Highs State Lows

Community

WunderPhotos

Upload Photos

1,732,549 photos uploaded!

WunderBlogs® & News

Nearby

Snow Depth

Station Depth Elevation
Gobblers Knob 0 in 2030 ft
Coldfoot 0 in 1040 ft
Little Chena Ridge 1 in 2000 ft
Eagle Summit 1 in 3650 ft
Monument Creek 0 in 1850 ft

Earthquake Activity

City Distance Mag. Time & Date
No recent earthquake activity has been reported nearby.
Minimum magnitude displayed is 2.5.

Coastal Water Temperatures

Place Temperature
No Stations Reporting

Nearby Weather Stations

Station Location Temp. Dew Point Humidity Wind Precip. Elev Updated Type
RAWS SEVEN MILE AK, Stevens Village, AK 61 °F 53 °F 74% WNW  at  2 mph 0.00 in / hr 823 ft 10:19 AM AKDT MADIS
HADS HESS C NR LIVENGOOD AK , Stevens Village, AK 61 °F - - North  at  - 0.00 in / hr 687 ft 10:00 AM AKDT MADIS

Show More Stations Show Fewer Stations